Time;durP1;ratioP1;P1;durP2;ratioP2;P2;SDS_P1;SDS_P2;PMS_P1;PMS_P2;Temp;Humidity;BMP_temperature;BMP_pressure;BME280_temperature;BME280_humidity;BME280_pressure;Samples;Min_cycle;Max_cycle;Signal;HPM_P1;HPM_P2
2021/12/05 00:25:02;;;;;;;15.50;4.35;;;;;;;-145.45;100.00;62759.84;5317854;27;20222;-83
2021/12/05 00:54:59;;;;;;;22.88;5.53;;;;;;;-145.45;100.00;62759.84;5324021;27;20389;-82
2021/12/05 01:20:55;;;;;;;22.27;5.78;;;;;;;-145.45;100.00;62759.84;5316933;27;20028;-82
2021/12/05 01:25:11;;;;;;;;;;;;;;;;;;;;;
2021/12/05 01:38:27;;;;;;;17.75;5.07;;;;;;;-145.45;100.00;62759.84;5239606;28;20601;-82
2021/12/05 02:43:25;;;;;;;23.40;5.95;;;;;;;-145.45;100.00;62759.84;5196548;28;20516;-82
2021/12/05 02:46:40;;;;;;;17.23;4.32;;;;;;;-145.45;100.00;62759.84;5249753;28;20041;-82
2021/12/05 02:49:24;;;;;;;12.75;3.67;;;;;;;-145.45;100.00;62759.84;5279209;28;20037;-82
2021/12/05 02:52:00;;;;;;;18.88;4.82;;;;;;;-145.45;100.00;62759.84;5275594;28;20032;-82
2021/12/05 02:54:39;;;;;;;21.05;5.90;;;;;;;-145.45;100.00;62759.84;5277036;28;20040;-82
2021/12/05 02:57:13;;;;;;;18.23;4.18;;;;;;;-145.45;100.00;62759.84;5274381;28;20355;-82
2021/12/05 02:59:53;;;;;;;14.52;4.10;;;;;;;-145.45;100.00;62759.84;5272878;28;20092;-81
2021/12/05 03:02:37;;;;;;;20.83;4.60;;;;;;;-145.45;100.00;62759.84;5277484;28;20083;-82
2021/12/05 03:05:14;;;;;;;15.80;4.22;;;;;;;-145.45;100.00;62759.84;5269626;28;20021;-81
2021/12/05 03:07:48;;;;;;;17.95;4.15;;;;;;;-145.45;100.00;62759.84;5278844;28;20025;-81
2021/12/05 03:10:21;;;;;;;19.77;5.38;;;;;;;-145.45;100.00;62759.84;5283314;28;20024;-81
2021/12/05 03:12:56;;;;;;;15.48;4.00;;;;;;;-145.45;100.00;62759.84;5283742;28;20075;-82
2021/12/05 03:15:28;;;;;;;15.27;4.85;;;;;;;-145.45;100.00;62759.84;5285140;28;20759;-82
2021/12/05 03:17:59;;;;;;;15.20;4.70;;;;;;;-145.45;100.00;62759.84;5284381;28;20036;-82
2021/12/05 03:20:31;;;;;;;17.83;5.00;;;;;;;-145.45;100.00;62759.84;5296617;28;20124;-82
2021/12/05 03:23:03;;;;;;;20.73;4.55;;;;;;;-145.45;100.00;62759.84;5285927;28;20123;-82
2021/12/05 03:25:35;;;;;;;17.73;4.57;;;;;;;-145.45;100.00;62759.84;5272531;28;20037;-82
2021/12/05 03:28:07;;;;;;;22.63;4.93;;;;;;;-145.45;100.00;62759.84;5274642;28;20020;-82
2021/12/05 03:30:38;;;;;;;16.05;5.10;;;;;;;-145.45;100.00;62759.84;5283490;28;20032;-82
2021/12/05 03:33:10;;;;;;;13.90;4.15;;;;;;;-145.45;100.00;62759.84;5276675;28;20462;-83
2021/12/05 03:35:42;;;;;;;15.05;4.70;;;;;;;-145.45;100.00;62759.84;5283167;28;20024;-83
2021/12/05 03:38:16;;;;;;;11.43;4.50;;;;;;;-145.45;100.00;62759.84;5276314;28;20060;-82
2021/12/05 03:40:47;;;;;;;18.15;4.85;;;;;;;-145.45;100.00;62759.84;5291721;28;20044;-82
2021/12/05 03:43:20;;;;;;;14.15;5.90;;;;;;;-145.45;100.00;62759.84;5304739;27;20027;-82
2021/12/05 03:45:54;;;;;;;14.77;5.60;;;;;;;-145.45;100.00;62759.84;5305131;28;20043;-82
2021/12/05 03:48:38;;;;;;;14.38;5.95;;;;;;;-145.45;100.00;62759.84;5303656;27;20025;-82
2021/12/05 03:51:14;;;;;;;20.70;5.47;;;;;;;-145.45;100.00;62759.84;5297429;28;20538;-82
2021/12/05 03:53:46;;;;;;;13.02;5.38;;;;;;;-145.45;100.00;62759.84;5296637;27;20031;-82
2021/12/05 03:56:20;;;;;;;15.50;5.60;;;;;;;-145.45;100.00;62759.84;5302189;28;20036;-82
2021/12/05 03:58:54;;;;;;;10.80;5.63;;;;;;;-145.45;100.00;62759.84;5301955;27;20500;-82
2021/12/05 04:01:26;;;;;;;12.90;5.68;;;;;;;-145.45;100.00;62759.84;5323545;27;20044;-82
2021/12/05 04:03:57;;;;;;;15.07;5.57;;;;;;;-145.45;100.00;62759.84;5300090;27;20683;-82
2021/12/05 04:06:30;;;;;;;14.05;5.47;;;;;;;-145.45;100.00;62759.84;5305237;28;20087;-82
2021/12/05 04:09:10;;;;;;;12.40;5.35;;;;;;;-145.45;100.00;62759.84;5304072;27;20032;-82
2021/12/05 04:11:47;;;;;;;13.50;5.35;;;;;;;-145.45;100.00;62759.84;5301459;27;20036;-82
2021/12/05 04:14:21;;;;;;;10.23;5.35;;;;;;;-145.45;100.00;62759.84;5296153;28;20033;-82
2021/12/05 04:16:56;;;;;;;13.13;6.00;;;;;;;-145.45;100.00;62759.84;5302271;28;20048;-82
2021/12/05 04:19:27;;;;;;;13.55;4.55;;;;;;;-145.45;100.00;62759.84;5296270;28;20150;-82
2021/12/05 04:22:00;;;;;;;17.50;5.68;;;;;;;-145.45;100.00;62759.84;5289941;28;20077;-82
2021/12/05 04:24:32;;;;;;;12.80;4.95;;;;;;;-145.45;100.00;62759.84;5311182;27;20035;-82
2021/12/05 04:27:05;;;;;;;13.57;4.47;;;;;;;-145.45;100.00;62759.84;5294867;28;20043;-82
2021/12/05 04:29:37;;;;;;;10.63;4.15;;;;;;;-145.45;100.00;62759.84;5294721;27;20510;-82
2021/12/05 04:32:09;;;;;;;9.63;4.68;;;;;;;-145.45;100.00;62759.84;5288566;27;20139;-82
2021/12/05 04:34:41;;;;;;;12.63;4.55;;;;;;;-145.45;100.00;62759.84;5291077;28;20120;-82
2021/12/05 04:37:12;;;;;;;10.93;4.45;;;;;;;-145.45;100.00;62759.84;5308292;27;20483;-82
2021/12/05 04:39:44;;;;;;;11.20;4.68;;;;;;;-145.45;100.00;62759.84;5299661;27;20076;-82
2021/12/05 04:42:16;;;;;;;10.88;4.07;;;;;;;-145.45;100.00;62759.84;5296545;27;20021;-82
2021/12/05 04:44:50;;;;;;;13.48;4.85;;;;;;;-145.45;100.00;62759.84;5298242;27;20389;-82
2021/12/05 04:47:24;;;;;;;8.52;4.25;;;;;;;-145.45;100.00;62759.84;5331019;27;20352;-82
2021/12/05 04:49:56;;;;;;;9.95;3.95;;;;;;;-145.45;100.00;62759.84;5310684;28;20503;-81
2021/12/05 04:52:28;;;;;;;9.60;3.95;;;;;;;-145.45;100.00;62759.84;5303670;28;20114;-81
2021/12/05 04:55:00;;;;;;;10.75;4.05;;;;;;;-145.45;100.00;62759.84;5297263;27;20330;-83
2021/12/05 04:57:31;;;;;;;13.88;4.85;;;;;;;-145.45;100.00;62759.84;5334056;27;20085;-82
2021/12/05 05:00:08;;;;;;;15.95;4.38;;;;;;;-145.45;100.00;62759.84;5302666;28;20350;-82
2021/12/05 05:02:40;;;;;;;11.68;4.30;;;;;;;-145.45;100.00;62759.84;5308461;28;20028;-82
2021/12/05 05:05:12;;;;;;;7.07;4.65;;;;;;;-145.45;100.00;62759.84;5295722;28;20123;-82
2021/12/05 05:07:44;;;;;;;10.93;4.28;;;;;;;-145.45;100.00;62759.84;5300923;28;20062;-82
2021/12/05 05:10:28;;;;;;;12.43;5.20;;;;;;;-145.45;100.00;62759.84;5299195;28;20031;-82
2021/12/05 05:13:00;;;;;;;8.05;4.65;;;;;;;-145.45;100.00;62759.84;5310556;28;20100;-81
2021/12/05 05:15:31;;;;;;;9.90;4.10;;;;;;;-145.45;100.00;62759.84;5293861;28;20028;-82
2021/12/05 05:18:04;;;;;;;8.45;4.13;;;;;;;-145.45;100.00;62759.84;5293314;28;20032;-82
2021/12/05 05:20:43;;;;;;;10.20;4.22;;;;;;;-145.45;100.00;62759.84;5297636;28;20115;-82
2021/12/05 05:30:15;;;;;;;8.52;4.28;;;;;;;-145.45;100.00;62759.84;5314825;27;20036;-82
2021/12/05 05:46:27;;;;;;;8.15;4.30;;;;;;;-145.45;100.00;62759.84;5315656;27;20024;-82
2021/12/05 05:49:14;;;;;;;6.38;3.38;;;;;;;-145.45;100.00;62759.84;5321937;27;20074;-82
2021/12/05 05:51:46;;;;;;;6.55;3.47;;;;;;;-145.45;100.00;62759.84;5304708;28;20415;-82
2021/12/05 05:54:19;;;;;;;8.27;4.00;;;;;;;-145.45;100.00;62759.84;5298040;27;20031;-81
2021/12/05 05:56:56;;;;;;;6.60;3.60;;;;;;;-145.45;100.00;62759.84;5320020;27;20670;-82
2021/12/05 05:59:38;;;;;;;6.45;3.53;;;;;;;-145.45;100.00;62759.84;5301775;28;20033;-82
2021/12/05 06:04:42;;;;;;;6.40;3.55;;;;;;;-145.45;100.00;62759.84;5324079;27;20039;-82
2021/12/05 06:07:15;;;;;;;5.72;3.60;;;;;;;-145.45;100.00;62759.84;5306549;27;20029;-82
2021/12/05 06:09:48;;;;;;;6.25;3.28;;;;;;;-145.45;100.00;62759.84;5298765;28;20396;-81
2021/12/05 06:12:20;;;;;;;4.57;3.13;;;;;;;-145.45;100.00;62759.84;5319417;27;20052;-82
2021/12/05 06:14:51;;;;;;;5.38;3.00;;;;;;;-145.45;100.00;62759.84;5307421;27;20174;-82
2021/12/05 06:17:23;;;;;;;3.65;3.15;;;;;;;-145.45;100.00;62759.84;5306933;27;20493;-82
2021/12/05 06:19:58;;;;;;;7.90;3.70;;;;;;;-145.45;100.00;62759.84;5301905;28;20028;-82
2021/12/05 06:22:29;;;;;;;6.18;3.22;;;;;;;-145.45;100.00;62759.84;5303808;27;20028;-82
2021/12/05 06:25:02;;;;;;;5.38;3.67;;;;;;;-145.45;100.00;62759.84;5302933;28;20032;-81
2021/12/05 06:27:33;;;;;;;5.53;3.70;;;;;;;-145.45;100.00;62759.84;5302931;27;20080;-82
2021/12/05 06:30:16;;;;;;;4.95;3.83;;;;;;;-145.45;100.00;62759.84;5292069;28;20025;-82
2021/12/05 06:46:13;;;;;;;5.97;4.22;;;;;;;-145.45;100.00;62759.84;5317608;27;20035;-82
2021/12/05 06:48:46;;;;;;;5.22;4.03;;;;;;;-145.45;100.00;62759.84;5299540;27;20039;-82
2021/12/05 06:51:21;;;;;;;4.88;3.75;;;;;;;-145.45;100.00;62759.84;5314655;27;20028;-81
2021/12/05 06:53:56;;;;;;;7.82;4.70;;;;;;;-145.45;100.00;62759.84;5297556;28;20125;-82
2021/12/05 06:56:28;;;;;;;5.47;4.30;;;;;;;-145.45;100.00;62759.84;5294260;27;20020;-81
2021/12/05 06:59:00;;;;;;;6.20;4.50;;;;;;;-145.45;100.00;62759.84;5303112;28;20039;-82
2021/12/05 07:01:32;;;;;;;6.28;4.75;;;;;;;-145.45;100.00;62759.84;5322246;27;20081;-81
2021/12/05 07:04:13;;;;;;;5.72;4.90;;;;;;;-145.45;100.00;62759.84;5308792;28;20024;-82
2021/12/05 07:06:44;;;;;;;7.85;4.70;;;;;;;-145.45;100.00;62759.84;5302932;28;20044;-81
2021/12/05 07:09:19;;;;;;;6.82;4.95;;;;;;;-145.45;100.00;62759.84;5302286;27;20100;-81
2021/12/05 07:12:54;;;;;;;6.55;5.38;;;;;;;-145.45;100.00;62759.84;5296867;28;20082;-82
2021/12/05 07:20:13;;;;;;;8.23;5.45;;;;;;;-145.45;100.00;62759.84;5318696;27;20555;-82
2021/12/05 07:23:08;;;;;;;8.40;5.97;;;;;;;-145.45;100.00;62759.84;5301837;27;20089;-82
2021/12/05 07:25:52;;;;;;;6.80;6.10;;;;;;;-145.45;100.00;62759.84;5303318;28;20035;-82
2021/12/05 07:42:41;;;;;;;8.57;6.80;;;;;;;-145.45;100.00;62759.84;5319776;27;20051;-82
2021/12/05 07:45:25;;;;;;;8.88;6.68;;;;;;;-145.45;100.00;62759.84;5297450;28;20031;-83
2021/12/05 07:47:58;;;;;;;10.20;6.70;;;;;;;-145.45;100.00;62759.84;5307148;28;20028;-83
2021/12/05 07:50:40;;;;;;;9.95;7.35;;;;;;;-145.45;100.00;62759.84;5290820;27;20051;-82
2021/12/05 07:53:20;;;;;;;10.30;6.53;;;;;;;-145.45;100.00;62759.84;5298623;28;20143;-82
2021/12/05 07:55:55;;;;;;;9.65;7.22;;;;;;;-145.45;100.00;62759.84;5288084;27;20113;-82
2021/12/05 07:58:50;;;;;;;9.45;6.93;;;;;;;-145.45;100.00;62759.84;5296480;28;20041;-82
2021/12/05 08:15:39;;;;;;;6.75;6.03;;;;;;;-145.45;100.00;62759.84;5320062;27;20131;-82
2021/12/05 08:18:11;;;;;;;9.38;6.18;;;;;;;-145.45;100.00;62759.84;5309901;27;20035;-82
2021/12/05 08:20:46;;;;;;;8.50;6.63;;;;;;;-145.45;100.00;62759.84;5308476;27;20622;-82
2021/12/05 08:23:18;;;;;;;10.95;6.45;;;;;;;-145.45;100.00;62759.84;5310384;27;20034;-83
2021/12/05 08:26:18;;;;;;;6.70;5.85;;;;;;;-145.45;100.00;62759.84;5316018;27;20023;-82
2021/12/05 08:31:42;;;;;;;7.85;6.28;;;;;;;-145.45;100.00;62759.84;5324988;27;20158;-82
2021/12/05 09:38:49;;;;;;;8.15;7.35;;;;;;;-145.45;100.00;62759.84;5318163;28;20036;-83
2021/12/05 10:07:26;;;;;;;17.38;11.93;;;;;;;-145.45;100.00;62759.84;5317524;28;20028;-82
2021/12/05 10:38:13;;;;;;;14.10;11.98;;;;;;;-145.45;100.00;62759.84;5307458;27;20536;-84
2021/12/05 10:41:47;;;;;;;13.95;11.57;;;;;;;-145.45;100.00;62759.84;5298146;28;20686;-84
2021/12/05 10:43:58;;;;;;;11.80;10.60;;;;;;;-145.45;100.00;62759.84;5306968;27;20028;-84
2021/12/05 10:46:30;;;;;;;13.32;11.52;;;;;;;-145.45;100.00;62759.84;5299823;28;20036;-85
2021/12/05 10:49:13;;;;;;;12.80;10.02;;;;;;;-145.45;100.00;62759.84;5319721;28;20047;-85
2021/12/05 10:51:57;;;;;;;11.82;10.48;;;;;;;-145.45;100.00;62759.84;5306432;28;20024;-84
2021/12/05 10:54:29;;;;;;;11.27;10.00;;;;;;;-145.45;100.00;62759.84;5296731;28;20086;-83
2021/12/05 10:57:03;;;;;;;11.23;9.95;;;;;;;-145.45;100.00;62759.84;5292668;28;20062;-83
2021/12/05 10:59:40;;;;;;;10.82;9.48;;;;;;;-145.45;100.00;62759.84;5291691;28;20044;-84
2021/12/05 11:02:24;;;;;;;10.70;9.57;;;;;;;-145.45;100.00;62759.84;5290873;28;20025;-83
2021/12/05 11:04:55;;;;;;;10.65;9.60;;;;;;;-145.45;100.00;62759.84;5299662;28;20052;-84
2021/12/05 11:07:27;;;;;;;9.55;8.65;;;;;;;-145.45;100.00;62759.84;5286762;28;20055;-84
2021/12/05 11:10:02;;;;;;;8.85;6.97;;;;;;;-145.45;100.00;62759.84;5285905;28;20078;-85
2021/12/05 11:12:35;;;;;;;8.23;5.45;;;;;;;-145.45;100.00;62759.84;5296695;28;20032;-83
2021/12/05 11:15:18;;;;;;;5.15;4.70;;;;;;;-145.45;100.00;62759.84;5285895;28;20515;-84
2021/12/05 11:17:50;;;;;;;6.13;5.07;;;;;;;-145.45;100.00;62759.84;5285207;28;20040;-83
2021/12/05 11:20:33;;;;;;;6.63;4.82;;;;;;;-145.45;100.00;62759.84;5302439;28;20396;-84
2021/12/05 11:23:05;;;;;;;4.88;4.47;;;;;;;-145.45;100.00;62759.84;5291297;28;20032;-84
2021/12/05 11:25:41;;;;;;;5.32;4.80;;;;;;;-145.45;100.00;62759.84;5306565;28;20024;-84
2021/12/05 11:28:24;;;;;;;6.13;5.25;;;;;;;-145.45;100.00;62759.84;5302941;28;20039;-84
2021/12/05 11:30:58;;;;;;;6.25;5.57;;;;;;;-145.45;100.00;62759.84;5304416;28;20495;-85
2021/12/05 11:33:30;;;;;;;6.75;5.78;;;;;;;-145.45;100.00;62759.84;5295746;28;20453;-83
2021/12/05 11:36:03;;;;;;;6.88;6.18;;;;;;;-145.45;100.00;62759.84;5292968;28;20023;-82
2021/12/05 11:38:35;;;;;;;6.60;6.00;;;;;;;-145.45;100.00;62759.84;5285057;28;20063;-85
2021/12/05 11:41:11;;;;;;;7.60;6.90;;;;;;;-145.45;100.00;62759.84;5286018;28;20180;-85
2021/12/05 11:43:56;;;;;;;8.05;7.25;;;;;;;-145.45;100.00;62759.84;5286729;28;20100;-85
2021/12/05 11:46:34;;;;;;;7.85;7.15;;;;;;;-145.45;100.00;62759.84;5301598;28;20025;-85
2021/12/05 11:49:13;;;;;;;8.00;7.20;;;;;;;-145.45;100.00;62759.84;5300764;28;20480;-85
2021/12/05 11:51:52;;;;;;;10.73;9.25;;;;;;;-145.45;100.00;62759.84;5284295;28;20427;-84
2021/12/05 11:54:24;;;;;;;8.75;7.20;;;;;;;-145.45;100.00;62759.84;5283637;28;20047;-84
2021/12/05 11:57:00;;;;;;;8.10;7.30;;;;;;;-145.45;100.00;62759.84;5285415;28;20478;-84
2021/12/05 11:59:44;;;;;;;;;;;;;;;-145.45;100.00;62759.84;5286283;28;20031;-85
2021/12/05 12:02:28;;;;;;;9.55;8.65;;;;;;;-145.45;100.00;62759.84;5318167;28;19923;-84
2021/12/05 12:05:08;;;;;;;9.40;8.50;;;;;;;-145.45;100.00;62759.84;5308703;28;20400;-84
2021/12/05 12:07:47;;;;;;;10.35;9.35;;;;;;;-145.45;100.00;62759.84;5284530;28;20025;-85
2021/12/05 12:10:39;;;;;;;9.93;8.93;;;;;;;-145.45;100.00;62759.84;5284115;28;20021;-84
2021/12/05 12:13:22;;;;;;;8.98;8.15;;;;;;;-145.45;100.00;62759.84;5283482;28;20036;-85
2021/12/05 12:16:00;;;;;;;9.95;8.35;;;;;;;-145.45;100.00;62759.84;5301018;28;20031;-85
2021/12/05 12:18:35;;;;;;;9.07;8.18;;;;;;;-145.45;100.00;62759.84;5305260;28;20037;-85
2021/12/05 12:21:13;;;;;;;8.18;7.38;;;;;;;-145.45;100.00;62759.84;5304666;28;20058;-85
2021/12/05 12:23:57;;;;;;;7.70;7.00;;;;;;;-145.45;100.00;62759.84;5315918;28;20659;-85
2021/12/05 12:26:28;;;;;;;8.50;7.60;;;;;;;-145.45;100.00;62759.84;5285901;28;20032;-85
2021/12/05 12:29:00;;;;;;;8.35;7.55;;;;;;;-145.45;100.00;62759.84;5298690;28;20074;-85
2021/12/05 12:31:36;;;;;;;7.95;7.25;;;;;;;-145.45;100.00;62759.84;5291956;28;20027;-83
2021/12/05 12:34:14;;;;;;;7.85;6.88;;;;;;;-145.45;100.00;62759.84;5296651;28;20176;-83
2021/12/05 12:36:52;;;;;;;7.45;6.85;;;;;;;-145.45;100.00;62759.84;5294191;28;20016;-83
2021/12/05 12:39:28;;;;;;;8.27;7.47;;;;;;;-145.45;100.00;62759.84;5291892;28;20036;-82
2021/12/05 12:42:05;;;;;;;9.15;8.25;;;;;;;-145.45;100.00;62759.84;5292944;28;20040;-82
2021/12/05 12:44:37;;;;;;;8.50;7.80;;;;;;;-145.45;100.00;62759.84;5312289;28;20040;-81
2021/12/05 12:47:09;;;;;;;8.90;7.93;;;;;;;-145.45;100.00;62759.84;5292143;28;20040;-81
2021/12/05 12:49:41;;;;;;;10.20;9.20;;;;;;;-145.45;100.00;62759.84;5287269;28;20059;-82
2021/12/05 12:52:15;;;;;;;10.18;9.27;;;;;;;-145.45;100.00;62759.84;5288158;28;20054;-81
2021/12/05 12:54:55;;;;;;;9.15;8.25;;;;;;;-145.45;100.00;62759.84;5290745;28;20032;-82
2021/12/05 12:57:33;;;;;;;9.45;8.48;;;;;;;-145.45;100.00;62759.84;5300942;28;20033;-82
2021/12/05 13:00:10;;;;;;;8.15;7.35;;;;;;;-145.45;100.00;62759.84;5291032;28;21099;-82
2021/12/05 13:11:23;;;;;;;8.60;7.70;;;;;;;-145.45;100.00;62759.84;5312601;28;20048;-82
2021/12/05 13:14:03;;;;;;;8.77;7.93;;;;;;;-145.45;100.00;62759.84;5296467;28;20028;-83
2021/12/05 13:16:36;;;;;;;8.68;7.78;;;;;;;-145.45;100.00;62759.84;5301597;28;20037;-82
2021/12/05 13:19:22;;;;;;;8.60;7.75;;;;;;;-145.45;100.00;62759.84;5292261;28;20044;-82
2021/12/05 13:22:03;;;;;;;10.27;7.97;;;;;;;-145.45;100.00;62759.84;5291584;28;20039;-82
2021/12/05 13:24:46;;;;;;;8.90;8.02;;;;;;;-145.45;100.00;62759.84;5296423;28;20111;-83
2021/12/05 13:27:31;;;;;;;7.97;7.28;;;;;;;-145.45;100.00;62759.84;5296174;28;20025;-83
2021/12/05 13:30:03;;;;;;;8.07;7.22;;;;;;;-145.45;100.00;62759.84;5306700;28;20028;-83
2021/12/05 13:32:37;;;;;;;7.78;6.90;;;;;;;-145.45;100.00;62759.84;5291751;28;20027;-83
2021/12/05 13:35:11;;;;;;;9.20;8.20;;;;;;;-145.45;100.00;62759.84;5303706;28;20032;-83
2021/12/05 13:37:47;;;;;;;9.30;8.13;;;;;;;-145.45;100.00;62759.84;5291363;28;20488;-83
2021/12/05 13:40:18;;;;;;;8.15;7.45;;;;;;;-145.45;100.00;62759.84;5285867;28;20118;-84
2021/12/05 13:42:56;;;;;;;8.48;7.68;;;;;;;-145.45;100.00;62759.84;5312129;28;20025;-83
2021/12/05 13:45:27;;;;;;;7.57;6.88;;;;;;;-145.45;100.00;62759.84;5295790;28;20120;-82
2021/12/05 13:48:00;;;;;;;7.07;6.38;;;;;;;-145.45;100.00;62759.84;5291916;28;20452;-82
2021/12/05 13:50:37;;;;;;;7.82;7.13;;;;;;;-145.45;100.00;62759.84;5305374;28;20128;-82
2021/12/05 13:53:09;;;;;;;8.05;7.00;;;;;;;-145.45;100.00;62759.84;5286403;28;20029;-82
2021/12/05 13:55:42;;;;;;;8.63;7.78;;;;;;;-145.45;100.00;62759.84;5301891;28;20037;-82
2021/12/05 13:58:28;;;;;;;9.85;8.85;;;;;;;-145.45;100.00;62759.84;5293739;28;20033;-82
2021/12/05 14:01:06;;;;;;;10.45;9.35;;;;;;;-145.45;100.00;62759.84;5298341;28;20032;-82
2021/12/05 14:04:06;;;;;;;10.43;9.32;;;;;;;-145.45;100.00;62759.84;5298553;27;20036;-82
2021/12/05 14:06:59;;;;;;;11.18;9.98;;;;;;;-145.45;100.00;62759.84;5303600;28;20024;-82
2021/12/05 14:09:34;;;;;;;11.45;10.35;;;;;;;-145.45;100.00;62759.84;5285112;28;20039;-82
2021/12/05 14:12:20;;;;;;;9.95;9.00;;;;;;;-145.45;100.00;62759.84;5299981;28;20048;-82
2021/12/05 14:15:02;;;;;;;10.90;9.63;;;;;;;-145.45;100.00;62759.84;5288244;28;20138;-82
2021/12/05 14:17:40;;;;;;;11.75;10.55;;;;;;;-145.45;100.00;62759.84;5307848;28;20024;-82
2021/12/05 14:20:16;;;;;;;11.88;10.38;;;;;;;-145.45;100.00;62759.84;5290666;28;20058;-83
2021/12/05 14:22:50;;;;;;;10.88;9.77;;;;;;;-145.45;100.00;62759.84;5287446;28;20041;-82
2021/12/05 14:25:28;;;;;;;10.15;9.10;;;;;;;-145.45;100.00;62759.84;5304136;28;20047;-84
2021/12/05 14:28:02;;;;;;;9.95;8.95;;;;;;;-145.45;100.00;62759.84;5296275;28;20039;-82
2021/12/05 14:30:35;;;;;;;10.23;9.05;;;;;;;-145.45;100.00;62759.84;5285843;28;20139;-82
2021/12/05 14:33:06;;;;;;;10.00;8.95;;;;;;;-145.45;100.00;62759.84;5286654;28;20368;-83
2021/12/05 14:35:40;;;;;;;10.30;9.30;;;;;;;-145.45;100.00;62759.84;5317159;28;20024;-82
2021/12/05 14:38:12;;;;;;;10.45;9.45;;;;;;;-145.45;100.00;62759.84;5307173;28;20035;-82
2021/12/05 14:40:43;;;;;;;11.07;9.93;;;;;;;-145.45;100.00;62759.84;5306180;28;20120;-82
2021/12/05 14:43:19;;;;;;;10.82;9.35;;;;;;;-145.45;100.00;62759.84;5307966;28;20020;-83
2021/12/05 14:45:51;;;;;;;9.77;8.47;;;;;;;-145.45;100.00;62759.84;5320224;28;20036;-82
2021/12/05 14:48:22;;;;;;;9.30;8.38;;;;;;;-145.45;100.00;62759.84;5327729;28;20017;-82
2021/12/05 14:50:56;;;;;;;9.98;8.52;;;;;;;-145.45;100.00;62759.84;5309151;28;20028;-82
2021/12/05 14:53:28;;;;;;;10.05;8.57;;;;;;;-145.45;100.00;62759.84;5301388;28;20086;-83
2021/12/05 14:56:00;;;;;;;9.20;8.25;;;;;;;-145.45;100.00;62759.84;5289243;28;20025;-82
2021/12/05 14:58:32;;;;;;;9.93;8.93;;;;;;;-145.45;100.00;62759.84;5313439;28;20098;-81
2021/12/05 15:01:04;;;;;;;9.88;8.95;;;;;;;-145.45;100.00;62759.84;5299806;28;20024;-82
2021/12/05 15:03:36;;;;;;;10.15;8.60;;;;;;;-145.45;100.00;62759.84;5301491;28;20046;-83
2021/12/05 15:06:08;;;;;;;10.20;9.20;;;;;;;-145.45;100.00;62759.84;5299758;28;20044;-83
2021/12/05 15:08:41;;;;;;;11.68;10.45;;;;;;;-145.45;100.00;62759.84;5292296;28;20123;-82
2021/12/05 15:11:13;;;;;;;12.38;11.05;;;;;;;-145.45;100.00;62759.84;5294197;28;20064;-83
2021/12/05 15:13:44;;;;;;;14.63;12.23;;;;;;;-145.45;100.00;62759.84;5291735;28;20500;-82
2021/12/05 15:16:16;;;;;;;14.27;12.20;;;;;;;-145.45;100.00;62759.84;5289170;28;20119;-83
2021/12/05 15:18:51;;;;;;;13.60;11.10;;;;;;;-145.45;100.00;62759.84;5306250;28;20036;-82
2021/12/05 15:21:22;;;;;;;14.88;11.60;;;;;;;-145.45;100.00;62759.84;5290637;28;20024;-83
2021/12/05 15:23:54;;;;;;;13.80;10.68;;;;;;;-145.45;100.00;62759.84;5309302;28;20495;-82
2021/12/05 15:26:31;;;;;;;14.05;12.15;;;;;;;-145.45;100.00;62759.84;5287936;28;20407;-83
2021/12/05 15:29:03;;;;;;;15.18;12.27;;;;;;;-145.45;100.00;62759.84;5290097;28;20423;-83
2021/12/05 15:31:42;;;;;;;16.73;14.40;;;;;;;-145.45;100.00;62759.84;5287133;28;20035;-82
2021/12/05 15:34:24;;;;;;;14.50;12.60;;;;;;;-145.45;100.00;62759.84;5292205;28;20045;-83
2021/12/05 15:36:58;;;;;;;15.10;13.10;;;;;;;-145.45;100.00;62759.84;5297479;28;20028;-83
2021/12/05 15:39:30;;;;;;;13.43;11.50;;;;;;;-145.45;100.00;62759.84;5300460;28;20762;-83
2021/12/05 15:42:13;;;;;;;12.10;10.80;;;;;;;-145.45;100.00;62759.84;5289338;28;20405;-83
2021/12/05 15:44:47;;;;;;;12.82;11.40;;;;;;;-145.45;100.00;62759.84;5318150;27;20035;-83
2021/12/05 15:47:23;;;;;;;12.73;11.00;;;;;;;-145.45;100.00;62759.84;5287911;28;20081;-83
2021/12/05 15:50:08;;;;;;;18.80;11.70;;;;;;;-145.45;100.00;62759.84;5306086;28;20024;-83
2021/12/05 15:52:58;;;;;;;13.43;11.65;;;;;;;-145.45;100.00;62759.84;5298253;28;20024;-83
2021/12/05 15:55:40;;;;;;;12.35;11.05;;;;;;;-145.45;100.00;62759.84;5291325;28;20117;-83
2021/12/05 15:58:17;;;;;;;15.07;11.25;;;;;;;-145.45;100.00;62759.84;5287615;28;20056;-83
2021/12/05 16:00:59;;;;;;;14.32;12.15;;;;;;;-145.45;100.00;62759.84;5291265;28;20021;-83
2021/12/05 16:03:47;;;;;;;15.85;13.10;;;;;;;-145.45;100.00;62759.84;5290970;28;20396;-83
2021/12/05 16:06:29;;;;;;;12.82;11.20;;;;;;;-145.45;100.00;62759.84;5295466;28;20020;-83
2021/12/05 16:09:13;;;;;;;10.70;9.43;;;;;;;-145.45;100.00;62759.84;5306179;28;20123;-82
2021/12/05 16:11:51;;;;;;;12.98;10.02;;;;;;;-145.45;100.00;62759.84;5297914;27;20047;-83
2021/12/05 16:14:32;;;;;;;13.45;10.55;;;;;;;-145.45;100.00;62759.84;5308819;27;20039;-83
2021/12/05 16:17:26;;;;;;;16.50;12.10;;;;;;;-145.45;100.00;62759.84;5314520;28;20031;-83
2021/12/05 16:20:10;;;;;;;14.75;11.93;;;;;;;-145.45;100.00;62759.84;5292059;28;20040;-83
2021/12/05 16:23:04;;;;;;;13.32;11.30;;;;;;;-145.45;100.00;62759.84;5297989;28;20806;-84
2021/12/05 16:25:43;;;;;;;12.65;10.82;;;;;;;-145.45;100.00;62759.84;5289257;28;20028;-84
2021/12/05 16:28:21;;;;;;;11.48;9.35;;;;;;;-145.45;100.00;62759.84;5297773;28;20462;-83
2021/12/05 16:31:05;;;;;;;11.77;9.52;;;;;;;-145.45;100.00;62759.84;5303504;27;20024;-83
2021/12/05 16:33:38;;;;;;;11.07;9.88;;;;;;;-145.45;100.00;62759.84;5291784;28;20032;-84
2021/12/05 16:36:10;;;;;;;13.15;11.02;;;;;;;-145.45;100.00;62759.84;5292179;28;20862;-85
2021/12/05 16:38:45;;;;;;;11.63;10.05;;;;;;;-145.45;100.00;62759.84;5294969;28;20138;-85
2021/12/05 16:41:28;;;;;;;10.68;9.25;;;;;;;-145.45;100.00;62759.84;5294736;28;20124;-85
2021/12/05 16:44:03;;;;;;;11.57;9.13;;;;;;;-145.45;100.00;62759.84;5298520;28;20054;-85
2021/12/05 16:46:43;;;;;;;10.85;9.02;;;;;;;-145.45;100.00;62759.84;5303229;28;21220;-85
2021/12/05 16:49:18;;;;;;;11.60;9.70;;;;;;;-145.45;100.00;62759.84;5291452;28;20035;-85
2021/12/05 16:52:01;;;;;;;10.32;9.10;;;;;;;-145.45;100.00;62759.84;5291618;28;20088;-84
2021/12/05 16:54:46;;;;;;;15.18;11.50;;;;;;;-145.45;100.00;62759.84;5296908;28;20488;-85
2021/12/05 16:57:22;;;;;;;12.75;10.75;;;;;;;-145.45;100.00;62759.84;5312317;28;20078;-85
2021/12/05 16:59:57;;;;;;;13.15;11.50;;;;;;;-145.45;100.00;62759.84;5299907;28;20541;-85
2021/12/05 17:02:40;;;;;;;13.02;11.10;;;;;;;-145.45;100.00;62759.84;5306519;28;20024;-86
2021/12/05 17:05:21;;;;;;;12.07;10.60;;;;;;;-145.45;100.00;62759.84;5298549;28;20063;-86
2021/12/05 17:08:13;;;;;;;13.48;11.85;;;;;;;-145.45;100.00;62759.84;5307136;28;20143;-86
2021/12/05 17:10:53;;;;;;;15.07;12.98;;;;;;;-145.45;100.00;62759.84;5297511;28;20024;-85
2021/12/05 17:13:38;;;;;;;14.98;12.18;;;;;;;-145.45;100.00;62759.84;5302364;28;20131;-85
2021/12/05 17:16:20;;;;;;;15.20;12.40;;;;;;;-145.45;100.00;62759.84;5304527;28;20385;-84
2021/12/05 17:19:08;;;;;;;13.80;10.88;;;;;;;-145.45;100.00;62759.84;5310186;28;20032;-84
2021/12/05 17:21:47;;;;;;;14.10;10.93;;;;;;;-145.45;100.00;62759.84;5313395;28;20111;-83
2021/12/05 17:24:23;;;;;;;12.65;10.82;;;;;;;-145.45;100.00;62759.84;5297546;28;20028;-84
2021/12/05 17:26:58;;;;;;;14.85;11.05;;;;;;;-145.45;100.00;62759.84;5295509;28;20095;-84
2021/12/05 17:29:36;;;;;;;11.90;10.40;;;;;;;-145.45;100.00;62759.84;5313329;27;20031;-85
2021/12/05 17:32:10;;;;;;;12.40;11.10;;;;;;;-145.45;100.00;62759.84;5301111;28;20017;-84
2021/12/05 17:34:52;;;;;;;12.63;10.93;;;;;;;-145.45;100.00;62759.84;5311386;28;20025;-84
2021/12/05 17:37:30;;;;;;;15.05;11.93;;;;;;;-145.45;100.00;62759.84;5300053;28;20032;-84